Time;durP1;ratioP1;P1;durP2;ratioP2;P2;SDS_P1;SDS_P2;PMS_P1;PMS_P2;Temp;Humidity;BMP_temperature;BMP_pressure;BME280_temperature;BME280_humidity;BME280_pressure;Samples;Min_cycle;Max_cycle;Signal;HPM_P1;HPM_P2
2021/12/02 00:01:17;;;;;;;5.40;2.70;;;;;;;-3.61;63.76;97977.41;4821290;29;20086;-91
2021/12/02 00:03:46;;;;;;;4.80;2.70;;;;;;;-3.74;63.99;97949.81;4793334;29;20124;-92
2021/12/02 00:06:16;;;;;;;4.95;2.80;;;;;;;-3.76;64.16;97967.63;4791987;29;20414;-91
2021/12/02 00:08:45;;;;;;;7.93;2.60;;;;;;;-3.68;64.02;97990.78;4808240;29;20061;-90
2021/12/02 00:11:12;;;;;;;3.70;2.60;;;;;;;-3.60;63.92;98001.25;4806636;29;20062;-93
2021/12/02 00:14:06;;;;;;;3.40;2.40;;;;;;;-3.58;63.69;97999.59;4806550;29;20484;-91
2021/12/02 00:21:51;;;;;;;6.88;3.20;;;;;;;-3.70;63.59;98000.09;4809653;29;20062;-89
2021/12/02 00:24:20;;;;;;;5.03;2.60;;;;;;;-3.74;63.65;97993.19;4806898;29;20505;-90
2021/12/02 00:26:49;;;;;;;6.03;3.00;;;;;;;-3.72;63.75;98002.63;4808314;29;20150;-90
2021/12/02 00:29:19;;;;;;;4.65;2.78;;;;;;;-3.64;63.89;98027.47;4811828;29;20054;-89
2021/12/02 00:31:49;;;;;;;4.40;2.70;;;;;;;-3.65;63.87;98024.06;4810808;29;20097;-90
2021/12/02 00:34:17;;;;;;;4.90;2.65;;;;;;;-3.65;63.61;98026.63;4807334;29;20063;-90
2021/12/02 00:36:44;;;;;;;4.30;2.78;;;;;;;-3.59;63.15;98023.38;4807997;29;20059;-90
2021/12/02 00:39:18;;;;;;;3.67;2.92;;;;;;;-3.65;63.29;98013.00;4806232;29;20071;-90
2021/12/02 00:41:46;;;;;;;4.95;2.80;;;;;;;-3.59;63.13;98026.81;4806902;29;20054;-90
2021/12/02 00:44:15;;;;;;;5.60;2.70;;;;;;;-3.60;63.09;98048.03;4816344;29;20062;-89
2021/12/02 00:46:44;;;;;;;4.13;2.50;;;;;;;-3.56;63.15;98059.22;4824235;29;20063;-91
2021/12/02 00:49:15;;;;;;;3.83;2.30;;;;;;;-3.53;63.14;98054.19;4802966;29;20645;-91
2021/12/02 00:51:47;;;;;;;3.42;2.55;;;;;;;-3.54;62.84;98057.56;4826593;29;20050;-91
2021/12/02 00:54:15;;;;;;;5.47;2.42;;;;;;;-3.56;63.13;98067.72;4795894;29;20439;-92
2021/12/02 00:56:42;;;;;;;6.68;3.08;;;;;;;-3.69;62.89;98052.00;4828626;29;20088;-91
2021/12/02 00:59:09;;;;;;;5.00;2.50;;;;;;;-3.55;62.44;98086.47;4847317;29;20058;-91
2021/12/02 01:01:38;;;;;;;5.50;2.60;;;;;;;-3.64;63.09;98076.84;4818135;29;20038;-92
2021/12/02 01:04:12;;;;;;;3.95;3.08;;;;;;;-3.69;63.44;98080.09;4781796;29;20042;-92
2021/12/02 01:06:40;;;;;;;4.07;2.45;;;;;;;-3.86;63.85;98074.44;4843529;29;20055;-91
2021/12/02 01:09:09;;;;;;;5.20;2.45;;;;;;;-3.58;63.59;98105.09;4842508;29;20049;-92
2021/12/02 01:11:38;;;;;;;7.63;2.95;;;;;;;-3.59;63.78;98111.03;4841116;29;20060;-92
2021/12/02 01:14:07;;;;;;;3.53;2.30;;;;;;;-3.63;63.87;98103.25;4839100;29;20092;-91
2021/12/02 01:16:35;;;;;;;4.72;2.83;;;;;;;-3.64;63.85;98110.00;4822383;29;20065;-91
2021/12/02 01:19:04;;;;;;;5.22;2.53;;;;;;;-3.63;64.17;98111.75;4823737;29;20075;-89
2021/12/02 01:21:36;;;;;;;4.35;2.63;;;;;;;-3.77;64.03;98090.91;4808383;29;20062;-91
2021/12/02 01:24:05;;;;;;;6.63;2.90;;;;;;;-3.60;64.44;98116.09;4807393;29;20518;-91
2021/12/02 01:26:34;;;;;;;4.53;2.70;;;;;;;-3.67;64.19;98119.28;4806666;29;20063;-91
2021/12/02 01:29:04;;;;;;;6.25;2.95;;;;;;;-3.82;64.79;98097.56;4791191;29;20090;-92
2021/12/02 01:31:34;;;;;;;5.50;3.00;;;;;;;-3.63;64.82;98121.13;4797920;29;20039;-91
2021/12/02 01:34:07;;;;;;;4.25;2.65;;;;;;;-3.54;64.87;98124.81;4813715;29;20051;-91
2021/12/02 01:36:37;;;;;;;5.05;2.70;;;;;;;-3.61;65.04;98119.47;4814291;29;20032;-92
2021/12/02 01:39:06;;;;;;;6.75;2.70;;;;;;;-3.65;65.13;98135.50;4814568;29;20036;-89
2021/12/02 01:41:45;;;;;;;5.10;2.85;;;;;;;-3.62;65.26;98125.38;4839762;29;20075;-89
2021/12/02 01:44:16;;;;;;;7.00;3.13;;;;;;;-3.66;65.43;98128.66;4850103;29;20046;-91
2021/12/02 01:46:44;;;;;;;5.18;2.88;;;;;;;-3.86;65.82;98115.28;4849553;29;20038;-88
2021/12/02 01:49:12;;;;;;;5.82;2.92;;;;;;;-3.80;66.10;98143.53;4844427;29;20058;-88
2021/12/02 01:51:49;;;;;;;4.38;2.40;;;;;;;-3.65;65.82;98150.81;4844120;29;20054;-88
2021/12/02 01:54:19;;;;;;;4.10;2.33;;;;;;;-3.66;65.92;98149.94;4841556;29;20090;-88
2021/12/02 01:56:49;;;;;;;4.83;2.17;;;;;;;-3.72;66.53;98150.63;4843037;29;20077;-89
2021/12/02 01:59:28;;;;;;;3.95;2.47;;;;;;;-3.76;66.17;98140.28;4841798;29;20086;-90
2021/12/02 02:01:57;;;;;;;4.13;2.55;;;;;;;-3.90;66.44;98124.50;4793427;30;20437;-91
2021/12/02 02:04:26;;;;;;;7.05;3.17;;;;;;;-3.75;66.72;98142.00;4793380;29;20574;-91
2021/12/02 02:07:03;;;;;;;4.93;2.70;;;;;;;-3.74;66.67;98144.59;4791968;30;20055;-91
2021/12/02 02:09:33;;;;;;;5.05;2.92;;;;;;;-3.72;66.90;98148.06;4793205;30;20439;-91
2021/12/02 02:12:04;;;;;;;8.40;3.70;;;;;;;-3.74;66.70;98141.19;4777562;30;20123;-90
2021/12/02 02:14:32;;;;;;;8.57;3.33;;;;;;;-3.67;66.92;98166.09;4804046;29;20039;-91
2021/12/02 02:17:14;;;;;;;4.82;2.35;;;;;;;-3.78;66.75;98139.34;4813381;29;20078;-90
2021/12/02 02:19:42;;;;;;;4.55;2.40;;;;;;;-3.66;66.79;98169.50;4782768;30;20086;-91
2021/12/02 02:22:11;;;;;;;4.05;2.42;;;;;;;-3.70;66.42;98143.00;4791066;30;20196;-92
2021/12/02 02:24:39;;;;;;;4.82;2.75;;;;;;;-3.57;66.26;98154.47;4792303;30;20055;-92
2021/12/02 02:27:07;;;;;;;4.63;2.72;;;;;;;-3.81;66.32;98134.13;4791732;29;20055;-92
2021/12/02 02:29:35;;;;;;;12.98;4.68;;;;;;;-3.54;66.13;98147.78;4790169;30;20067;-88
2021/12/02 02:32:02;;;;;;;4.40;2.63;;;;;;;-3.44;66.01;98165.94;4791813;29;20574;-89
2021/12/02 02:34:30;;;;;;;4.60;2.20;;;;;;;-3.46;65.78;98168.47;4791403;29;20409;-89
2021/12/02 02:37:01;;;;;;;4.45;2.67;;;;;;;-3.37;65.64;98178.94;4791542;29;20062;-89
2021/12/02 02:39:30;;;;;;;3.95;2.50;;;;;;;-3.46;65.80;98178.66;4805720;29;20116;-89
2021/12/02 02:41:59;;;;;;;4.25;2.58;;;;;;;-3.53;65.92;98172.50;4799194;29;20089;-86
2021/12/02 02:44:29;;;;;;;5.05;2.65;;;;;;;-3.38;66.22;98181.44;4808954;29;20095;-87
2021/12/02 02:46:56;;;;;;;5.85;2.40;;;;;;;-3.33;66.09;98188.44;4793964;29;20051;-86
2021/12/02 02:49:23;;;;;;;5.05;2.42;;;;;;;-3.35;65.89;98197.75;4790730;29;20065;-87
2021/12/02 02:51:51;;;;;;;4.20;2.45;;;;;;;-3.39;66.19;98188.25;4791442;29;20149;-87
2021/12/02 02:54:19;;;;;;;4.57;2.40;;;;;;;-3.43;65.42;98188.97;4790703;29;20221;-85
2021/12/02 02:56:59;;;;;;;5.13;2.10;;;;;;;-3.53;66.33;98190.38;4791051;29;20070;-86
2021/12/02 02:59:57;;;;;;;3.17;2.00;;;;;;;-3.71;66.40;98175.31;4790672;30;20081;-89
2021/12/02 03:05:11;;;;;;;4.00;2.45;;;;;;;-3.71;67.17;98212.72;4789803;29;20067;-88
2021/12/02 03:07:44;;;;;;;3.80;2.30;;;;;;;-3.64;66.95;98212.09;4777146;30;20497;-88
2021/12/02 03:10:16;;;;;;;4.22;2.30;;;;;;;-3.65;66.79;98199.31;4796080;29;20063;-87
2021/12/02 03:12:58;;;;;;;5.25;2.40;;;;;;;-3.60;66.72;98211.41;4793167;29;20086;-88
2021/12/02 03:18:12;;;;;;;4.20;2.35;;;;;;;-3.59;66.51;98209.69;4793627;29;20090;-87
2021/12/02 03:20:39;;;;;;;2.80;2.10;;;;;;;-3.58;66.53;98225.06;4791955;29;20063;-88
2021/12/02 03:23:07;;;;;;;2.55;2.00;;;;;;;-3.62;66.70;98222.38;4791265;30;20509;-88
2021/12/02 03:25:35;;;;;;;5.15;2.30;;;;;;;-3.60;66.54;98213.09;4791135;29;20534;-88
2021/12/02 03:28:03;;;;;;;5.35;2.50;;;;;;;-3.51;66.57;98226.16;4774815;30;20386;-87
2021/12/02 03:30:31;;;;;;;5.30;2.28;;;;;;;-3.54;66.20;98226.91;4779988;30;20066;-87
2021/12/02 03:32:58;;;;;;;2.53;1.88;;;;;;;-3.62;66.16;98217.28;4792619;29;20059;-88
2021/12/02 03:35:25;;;;;;;4.65;2.22;;;;;;;-3.69;65.77;98200.88;4791488;29;20081;-88
2021/12/02 03:37:53;;;;;;;1.73;1.60;;;;;;;-3.67;65.75;98209.47;4790888;29;20098;-89
2021/12/02 03:40:20;;;;;;;1.70;1.58;;;;;;;-3.64;65.52;98216.34;4791656;30;20081;-89
2021/12/02 03:42:52;;;;;;;2.55;1.55;;;;;;;-3.53;65.26;98230.31;4799271;29;20106;-90
2021/12/02 03:45:37;;;;;;;2.80;1.35;;;;;;;-3.52;64.80;98238.03;4812254;29;20059;-87
2021/12/02 03:48:05;;;;;;;1.90;1.45;;;;;;;-3.53;64.81;98251.66;4812662;29;20051;-87
2021/12/02 03:50:32;;;;;;;2.15;1.40;;;;;;;-3.55;64.94;98252.38;4807821;29;20059;-89
2021/12/02 03:52:59;;;;;;;1.98;1.33;;;;;;;-3.52;64.82;98249.94;4797740;29;20063;-87
2021/12/02 03:55:26;;;;;;;3.83;1.73;;;;;;;-3.47;64.39;98250.09;4799522;29;20059;-89
2021/12/02 03:57:53;;;;;;;2.70;1.50;;;;;;;-3.48;64.41;98248.34;4788314;29;20122;-91
2021/12/02 04:00:21;;;;;;;2.45;1.45;;;;;;;-3.50;64.43;98248.31;4798720;29;20059;-86
2021/12/02 04:02:53;;;;;;;2.53;1.95;;;;;;;-3.62;64.09;98223.25;4800319;29;20059;-88
2021/12/02 04:05:20;;;;;;;3.55;1.77;;;;;;;-3.51;64.16;98252.56;4801932;29;20050;-90
2021/12/02 04:07:47;;;;;;;4.00;1.90;;;;;;;-3.49;64.30;98244.94;4799281;29;20057;-87
2021/12/02 04:10:15;;;;;;;3.65;1.95;;;;;;;-3.53;63.85;98251.66;4825801;29;20093;-85
2021/12/02 04:15:16;;;;;;;3.63;2.17;;;;;;;-3.38;64.12;98269.13;4841036;29;20058;-87
2021/12/02 04:17:44;;;;;;;3.28;1.80;;;;;;;-3.35;64.02;98273.50;4838223;29;20069;-86
2021/12/02 04:20:23;;;;;;;2.10;1.83;;;;;;;-3.34;64.04;98267.53;4837712;29;20069;-89
2021/12/02 04:22:53;;;;;;;1.92;1.73;;;;;;;-3.36;64.11;98269.19;4829589;29;20058;-86
2021/12/02 04:25:21;;;;;;;3.13;2.15;;;;;;;-3.32;64.25;98273.56;4825474;29;20084;-85
2021/12/02 04:27:50;;;;;;;3.33;2.40;;;;;;;-3.33;64.42;98271.84;4824656;29;20149;-87
2021/12/02 04:30:23;;;;;;;3.22;2.30;;;;;;;-3.45;64.02;98266.34;4824305;29;20156;-89
2021/12/02 04:32:51;;;;;;;2.80;2.25;;;;;;;-3.38;63.97;98278.47;4826023;29;20073;-87
2021/12/02 04:35:22;;;;;;;3.80;1.90;;;;;;;-3.41;63.90;98273.28;4825335;29;20110;-88
2021/12/02 04:37:51;;;;;;;;;;;;;;;-3.48;64.30;98271.31;4810456;29;20050;-88
2021/12/02 04:40:21;;;;;;;2.35;1.80;;;;;;;-3.48;64.16;98282.44;4826149;29;20417;-89
2021/12/02 04:42:49;;;;;;;1.73;1.60;;;;;;;-3.51;64.35;98288.31;4826350;29;20082;-88
2021/12/02 04:45:17;;;;;;;1.98;1.63;;;;;;;-3.56;64.44;98281.28;4825170;29;20125;-90
2021/12/02 04:47:44;;;;;;;3.13;1.88;;;;;;;-3.51;64.01;98302.72;4829006;29;20065;-90
2021/12/02 04:50:13;;;;;;;2.58;1.77;;;;;;;-3.57;64.25;98287.19;4810314;29;20058;-88
2021/12/02 04:52:40;;;;;;;3.30;1.92;;;;;;;-3.50;64.29;98304.47;4826681;29;20444;-88
2021/12/02 04:55:09;;;;;;;2.53;1.67;;;;;;;-3.50;64.13;98299.38;4825713;29;20047;-88
2021/12/02 04:57:36;;;;;;;2.47;1.80;;;;;;;-3.55;64.58;98281.34;4824947;29;20150;-87
2021/12/02 05:00:05;;;;;;;3.33;2.15;;;;;;;-3.54;64.27;98300.94;4828343;29;20062;-88
2021/12/02 05:02:33;;;;;;;3.70;2.10;;;;;;;-3.51;64.49;98298.50;4824126;29;20457;-87
2021/12/02 05:05:00;;;;;;;2.70;1.88;;;;;;;-3.56;64.68;98305.13;4824980;29;20511;-86
2021/12/02 05:07:28;;;;;;;3.10;2.03;;;;;;;-3.49;64.69;98306.19;4824386;29;20054;-85
2021/12/02 05:09:56;;;;;;;5.10;2.40;;;;;;;-3.43;64.90;98316.63;4825518;29;20515;-86
2021/12/02 05:12:23;;;;;;;4.90;2.28;;;;;;;-3.48;65.15;98315.63;4828154;29;20147;-85
2021/12/02 05:14:51;;;;;;;4.20;1.95;;;;;;;-3.55;65.23;98317.09;4830399;29;20066;-86
2021/12/02 05:17:18;;;;;;;3.10;2.38;;;;;;;-3.68;65.25;98289.38;4834532;29;20078;-86
2021/12/02 05:19:46;;;;;;;4.45;2.50;;;;;;;-3.59;65.42;98316.91;4828740;29;20148;-87
2021/12/02 05:22:13;;;;;;;5.43;2.40;;;;;;;-3.56;65.48;98328.09;4827639;29;20068;-87
2021/12/02 05:24:41;;;;;;;4.40;2.42;;;;;;;-3.56;65.55;98325.56;4827840;29;20065;-88
2021/12/02 05:27:08;;;;;;;4.90;2.50;;;;;;;-3.54;65.40;98321.38;4827771;29;20149;-90
2021/12/02 05:29:35;;;;;;;5.00;2.10;;;;;;;-3.50;65.33;98328.31;4828418;29;20082;-88
2021/12/02 05:32:03;;;;;;;7.75;2.65;;;;;;;-3.48;65.47;98335.16;4814376;29;20054;-88
2021/12/02 05:34:33;;;;;;;3.38;1.90;;;;;;;-3.65;65.61;98326.94;4832883;29;20050;-89
2021/12/02 05:37:00;;;;;;;4.30;2.20;;;;;;;-3.73;65.61;98326.66;4812134;29;20086;-90
2021/12/02 05:39:27;;;;;;;3.22;2.30;;;;;;;-3.71;65.99;98346.31;4827137;29;20054;-91
2021/12/02 05:41:55;;;;;;;3.55;2.08;;;;;;;-3.79;66.01;98331.53;4834026;29;20083;-90
2021/12/02 05:44:23;;;;;;;6.38;3.20;;;;;;;-3.80;65.85;98353.63;4828828;29;20079;-90
2021/12/02 05:46:52;;;;;;;7.07;2.97;;;;;;;-4.13;66.35;98322.66;4813385;29;20074;-91
2021/12/02 05:49:37;;;;;;;7.15;2.80;;;;;;;-4.18;66.53;98332.69;4830802;29;20066;-89
2021/12/02 05:52:05;;;;;;;5.15;2.58;;;;;;;-4.14;66.69;98334.53;4828349;29;20069;-88
2021/12/02 05:54:32;;;;;;;7.50;3.28;;;;;;;-4.12;66.42;98327.81;4838735;29;20043;-89
2021/12/02 05:57:11;;;;;;;4.05;2.60;;;;;;;-3.99;66.49;98341.91;4842975;29;20059;-90
2021/12/02 05:59:49;;;;;;;5.32;2.65;;;;;;;-4.32;66.51;98299.03;4831361;29;20149;-90
2021/12/02 06:02:16;;;;;;;6.13;2.90;;;;;;;-3.78;66.08;98363.91;4828222;29;20440;-90
2021/12/02 06:04:45;;;;;;;8.90;3.63;;;;;;;-3.64;65.62;98365.25;4827629;29;20062;-89
2021/12/02 06:07:13;;;;;;;5.32;2.53;;;;;;;-3.60;65.46;98373.91;4799495;29;20504;-89
2021/12/02 06:09:41;;;;;;;4.60;2.63;;;;;;;-3.51;64.86;98384.41;4830034;29;20058;-90
2021/12/02 06:12:08;;;;;;;4.47;2.72;;;;;;;-3.40;64.72;98390.81;4833659;29;20046;-88
2021/12/02 06:14:35;;;;;;;5.05;2.80;;;;;;;-3.40;64.64;98389.91;4849076;29;20054;-89
2021/12/02 06:17:03;;;;;;;6.10;3.08;;;;;;;-3.54;64.22;98392.84;4833499;29;20068;-89
2021/12/02 06:19:30;;;;;;;4.72;3.33;;;;;;;-3.71;64.82;98382.03;4797615;29;20481;-91
2021/12/02 06:21:57;;;;;;;9.32;3.67;;;;;;;-3.69;64.89;98394.84;4828837;29;20070;-91
2021/12/02 06:24:30;;;;;;;8.90;3.70;;;;;;;-3.73;65.21;98381.09;4830214;29;20484;-90
2021/12/02 06:27:00;;;;;;;4.50;3.28;;;;;;;-3.64;64.59;98395.88;4829281;29;20170;-89
2021/12/02 06:29:27;;;;;;;9.60;4.00;;;;;;;-3.89;65.19;98386.47;4828337;29;20062;-90
2021/12/02 06:31:55;;;;;;;5.32;3.28;;;;;;;-3.88;65.21;98390.75;4832437;29;20090;-87
2021/12/02 06:34:22;;;;;;;4.45;2.85;;;;;;;-3.75;64.82;98409.94;4830004;29;20058;-90
2021/12/02 06:36:49;;;;;;;5.40;2.67;;;;;;;-3.80;64.81;98416.56;4828357;29;20054;-90
2021/12/02 06:39:17;;;;;;;5.75;2.90;;;;;;;-3.85;65.32;98410.41;4830016;29;20071;-90
2021/12/02 06:41:44;;;;;;;5.85;3.42;;;;;;;-3.85;65.09;98415.50;4829309;29;20058;-89
2021/12/02 06:44:13;;;;;;;5.43;2.83;;;;;;;-3.95;64.89;98412.63;4812013;29;20065;-90
2021/12/02 06:46:41;;;;;;;5.88;2.88;;;;;;;-4.28;64.95;98361.22;4830166;29;20078;-89
2021/12/02 06:49:08;;;;;;;4.43;2.88;;;;;;;-3.88;64.72;98423.06;4829257;29;20502;-88
2021/12/02 06:51:36;;;;;;;6.80;3.00;;;;;;;-4.06;64.42;98400.28;4826329;29;20092;-89
2021/12/02 06:54:04;;;;;;;5.05;2.72;;;;;;;-3.59;64.16;98439.44;4826306;29;20058;-88
2021/12/02 06:56:50;;;;;;;5.43;2.72;;;;;;;-3.43;63.83;98434.06;4835666;29;20073;-88
2021/12/02 06:59:18;;;;;;;4.22;2.63;;;;;;;-3.37;63.47;98431.75;4828060;29;20095;-86
2021/12/02 07:01:46;;;;;;;5.07;3.00;;;;;;;-3.47;63.10;98416.91;4826032;29;20468;-89
2021/12/02 07:04:14;;;;;;;4.90;3.40;;;;;;;-3.28;62.67;98432.91;4826290;29;20055;-88
2021/12/02 07:06:43;;;;;;;4.13;2.92;;;;;;;-3.33;62.75;98425.06;4828711;29;20058;-88
2021/12/02 07:09:11;;;;;;;4.63;2.42;;;;;;;-3.16;62.56;98435.84;4827026;29;20568;-86
2021/12/02 07:11:39;;;;;;;3.97;2.78;;;;;;;-2.97;61.57;98438.25;4827279;29;20058;-87
2021/12/02 07:14:13;;;;;;;3.10;2.40;;;;;;;-2.88;61.31;98430.91;4827558;29;20054;-89
2021/12/02 07:16:41;;;;;;;4.50;2.85;;;;;;;-2.65;61.65;98451.22;4826876;29;20062;-88
2021/12/02 07:19:13;;;;;;;4.72;3.08;;;;;;;-2.62;60.50;98424.91;4825880;29;20147;-90
2021/12/02 07:21:41;;;;;;;3.95;2.70;;;;;;;-2.66;60.59;98438.41;4826542;29;20588;-91
2021/12/02 07:24:13;;;;;;;4.82;2.90;;;;;;;-2.63;60.98;98439.34;4841741;29;20034;-89
2021/12/02 07:27:00;;;;;;;5.18;3.30;;;;;;;-2.39;60.38;98452.06;4849165;29;20099;-90
2021/12/02 07:29:27;;;;;;;6.18;3.40;;;;;;;-2.42;59.65;98440.88;4836411;29;20058;-86
2021/12/02 07:31:55;;;;;;;5.28;3.08;;;;;;;-2.38;59.76;98433.34;4844217;29;20077;-84
2021/12/02 07:34:26;;;;;;;4.82;3.33;;;;;;;-2.30;60.06;98423.38;4845946;29;20054;-84
2021/12/02 07:36:56;;;;;;;5.25;3.03;;;;;;;-2.03;59.35;98463.44;4835744;29;20054;-87
2021/12/02 07:39:25;;;;;;;4.18;3.20;;;;;;;-1.95;59.03;98442.34;4827729;29;20181;-87
2021/12/02 07:41:52;;;;;;;6.80;3.40;;;;;;;-1.84;59.13;98463.16;4811007;29;20091;-86
2021/12/02 07:44:20;;;;;;;6.18;3.30;;;;;;;-2.21;58.56;98386.97;4825334;29;20064;-86
2021/12/02 07:46:47;;;;;;;6.65;3.20;;;;;;;-1.79;58.41;98430.88;4826093;29;20441;-84
2021/12/02 07:49:14;;;;;;;4.57;2.95;;;;;;;-1.81;58.57;98444.47;4826813;29;20125;-87
2021/12/02 07:51:44;;;;;;;5.63;3.53;;;;;;;-1.90;58.77;98422.00;4829874;29;20078;-82
2021/12/02 07:54:24;;;;;;;4.40;3.08;;;;;;;-1.85;58.87;98440.94;4838614;29;20054;-84
2021/12/02 07:56:52;;;;;;;5.70;3.17;;;;;;;-1.63;58.71;98457.81;4832458;29;20111;-85
2021/12/02 07:59:20;;;;;;;4.07;2.90;;;;;;;-1.69;58.13;98429.47;4824764;29;20106;-84
2021/12/02 08:01:48;;;;;;;4.50;2.95;;;;;;;-1.57;58.17;98442.63;4824358;29;20054;-85
2021/12/02 08:04:15;;;;;;;4.00;2.63;;;;;;;-1.63;57.93;98441.56;4832373;29;20065;-82
2021/12/02 08:06:42;;;;;;;5.75;3.00;;;;;;;-1.64;58.36;98440.69;4839449;29;20050;-82
2021/12/02 08:09:14;;;;;;;5.13;3.00;;;;;;;-1.52;57.91;98435.94;4834904;29;20054;-83
2021/12/02 08:11:41;;;;;;;5.50;3.15;;;;;;;-1.41;57.64;98433.69;4844507;29;20042;-85
2021/12/02 08:14:13;;;;;;;5.47;2.75;;;;;;;-1.49;57.19;98407.84;4847509;29;20074;-86
2021/12/02 08:16:41;;;;;;;3.83;2.85;;;;;;;-1.38;57.67;98444.00;4844342;29;20050;-88
2021/12/02 08:19:08;;;;;;;6.25;3.03;;;;;;;-1.43;57.26;98440.44;4830354;29;20062;-88
2021/12/02 08:21:35;;;;;;;3.88;2.60;;;;;;;-1.50;57.20;98447.09;4827162;29;20091;-88
2021/12/02 08:24:03;;;;;;;4.90;3.20;;;;;;;-1.52;57.69;98427.41;4826800;29;20107;-89
2021/12/02 08:26:32;;;;;;;5.40;2.80;;;;;;;-1.51;56.74;98412.03;4845028;29;20061;-88
2021/12/02 08:29:01;;;;;;;7.13;2.90;;;;;;;-1.58;56.61;98407.59;4847896;29;20075;-88
2021/12/02 08:31:28;;;;;;;6.90;3.10;;;;;;;-1.49;57.00;98435.16;4848305;29;20098;-89
2021/12/02 08:41:55;;;;;;;3.92;2.58;;;;;;;-1.53;57.77;98423.06;4872498;29;20061;-92
2021/12/02 08:44:25;;;;;;;6.35;2.88;;;;;;;-1.43;57.33;98434.47;4831475;29;20058;-89
2021/12/02 08:46:54;;;;;;;5.80;3.17;;;;;;;-1.49;56.87;98407.84;4829851;29;20066;-89
2021/12/02 08:49:22;;;;;;;6.60;3.05;;;;;;;-1.36;56.77;98421.84;4833908;29;20058;-86
2021/12/02 08:51:51;;;;;;;4.60;2.53;;;;;;;-1.42;56.91;98419.13;4846913;29;20058;-85
2021/12/02 08:54:19;;;;;;;6.82;2.97;;;;;;;-1.65;57.00;98418.50;4837998;29;20538;-87
2021/12/02 08:56:46;;;;;;;6.60;2.80;;;;;;;-1.74;57.46;98415.63;4817619;29;20093;-86
2021/12/02 08:59:14;;;;;;;8.15;3.00;;;;;;;-1.59;57.33;98438.25;4792598;29;20073;-83
2021/12/02 09:01:41;;;;;;;6.07;2.88;;;;;;;-1.68;57.90;98418.38;4797311;29;20496;-87
2021/12/02 09:04:09;;;;;;;8.05;2.60;;;;;;;-1.59;57.32;98422.91;4807212;29;20101;-87
2021/12/02 09:06:36;;;;;;;6.50;3.03;;;;;;;-1.57;57.04;98411.00;4812551;29;20054;-87
2021/12/02 09:09:04;;;;;;;6.57;3.15;;;;;;;-1.70;57.44;98412.34;4819744;29;20093;-91
2021/12/02 09:11:48;;;;;;;3.80;2.42;;;;;;;-1.69;56.95;98445.69;4802699;29;20054;-92
2021/12/02 09:15:04;;;;;;;5.05;2.70;;;;;;;-1.75;57.29;98422.47;4809516;29;20065;-93
2021/12/02 09:17:32;;;;;;;4.28;2.63;;;;;;;-1.76;57.01;98419.88;4814510;29;20149;-87
2021/12/02 09:19:59;;;;;;;3.97;2.67;;;;;;;-1.76;57.47;98404.53;4811448;29;20058;-87
2021/12/02 09:22:28;;;;;;;6.97;3.10;;;;;;;-1.94;57.79;98392.88;4805871;29;20055;-88
2021/12/02 09:24:58;;;;;;;4.15;2.50;;;;;;;-1.93;57.63;98397.22;4807056;29;20078;-86
2021/12/02 09:27:25;;;;;;;4.85;2.72;;;;;;;-1.77;57.75;98420.69;4792990;29;20456;-88
2021/12/02 09:29:53;;;;;;;3.78;2.45;;;;;;;-1.70;57.52;98412.34;4803229;29;20051;-87
2021/12/02 09:32:36;;;;;;;4.50;2.92;;;;;;;-1.77;57.30;98402.75;4783214;29;20548;-91
2021/12/02 09:35:05;;;;;;;3.95;2.42;;;;;;;-1.72;57.22;98414.88;4792696;29;20061;-90
2021/12/02 09:37:33;;;;;;;4.30;2.47;;;;;;;-1.77;57.52;98405.31;4777003;30;20059;-89
2021/12/02 09:40:07;;;;;;;3.60;2.38;;;;;;;-1.81;57.68;98414.59;4792582;30;20432;-88
2021/12/02 09:42:35;;;;;;;4.75;2.65;;;;;;;-1.86;57.92;98394.00;4792493;29;20051;-92
2021/12/02 09:45:56;;;;;;;9.15;3.00;;;;;;;-1.83;57.90;98411.13;4781380;29;20081;-89
2021/12/02 09:48:27;;;;;;;3.03;2.50;;;;;;;-1.86;58.22;98409.34;4805967;29;20146;-90
2021/12/02 09:51:05;;;;;;;3.97;2.60;;;;;;;-1.89;57.85;98428.88;4804078;29;20059;-89
2021/12/02 09:54:25;;;;;;;4.32;2.30;;;;;;;-2.15;58.13;98365.00;4805025;29;20108;-85
2021/12/02 09:56:55;;;;;;;3.65;2.30;;;;;;;-1.87;58.14;98399.94;4802635;30;20059;-87
2021/12/02 09:59:47;;;;;;;3.67;2.35;;;;;;;-1.65;57.91;98392.88;4799807;29;20169;-89
2021/12/02 10:02:20;;;;;;;4.18;2.70;;;;;;;-1.69;58.02;98366.31;4793002;30;20477;-90
2021/12/02 10:04:59;;;;;;;3.35;2.08;;;;;;;-1.49;57.48;98377.09;4795330;30;20059;-88
2021/12/02 10:07:32;;;;;;;4.38;2.45;;;;;;;-1.57;57.77;98370.03;4796254;29;20047;-91
2021/12/02 10:12:43;;;;;;;4.93;2.40;;;;;;;-1.57;57.87;98347.88;4805611;29;20074;-88
2021/12/02 10:15:18;;;;;;;4.50;2.70;;;;;;;-1.60;58.21;98336.66;4805544;29;20150;-88
2021/12/02 10:17:52;;;;;;;5.55;2.88;;;;;;;-1.43;57.78;98357.63;4797567;29;20542;-88
2021/12/02 10:23:37;;;;;;;5.32;2.90;;;;;;;-1.41;57.97;98338.91;4791928;29;20574;-91
2021/12/02 10:26:05;;;;;;;3.78;2.10;;;;;;;-1.38;57.90;98354.34;4794590;30;20067;-88
2021/12/02 10:28:42;;;;;;;4.78;2.55;;;;;;;-1.47;58.15;98341.28;4807162;29;20120;-88
2021/12/02 10:31:16;;;;;;;3.60;2.13;;;;;;;-1.46;58.33;98356.72;4805024;29;20420;-87
2021/12/02 10:33:49;;;;;;;4.13;2.40;;;;;;;-1.50;58.01;98360.00;4809673;29;20135;-89
2021/12/02 10:36:30;;;;;;;3.75;2.70;;;;;;;-1.55;58.05;98368.38;4811248;29;20058;-87
2021/12/02 10:39:17;;;;;;;4.05;2.40;;;;;;;-1.67;58.51;98358.69;4793482;29;20474;-88
2021/12/02 10:41:56;;;;;;;3.33;2.00;;;;;;;-1.76;58.43;98358.44;4812818;29;20086;-86
2021/12/02 10:44:27;;;;;;;3.42;2.20;;;;;;;-1.79;58.73;98371.13;4810979;29;20059;-89
2021/12/02 10:47:11;;;;;;;3.33;2.22;;;;;;;-1.71;58.61;98361.97;4810912;29;20498;-90
2021/12/02 10:49:43;;;;;;;4.55;2.10;;;;;;;-1.61;58.83;98370.78;4811958;29;20070;-89
2021/12/02 10:52:14;;;;;;;5.03;2.10;;;;;;;-2.04;58.99;98292.78;4811751;29;20512;-90
2021/12/02 10:54:47;;;;;;;4.25;2.40;;;;;;;-1.67;58.83;98327.97;4809340;29;20058;-89
2021/12/02 10:57:19;;;;;;;5.43;2.38;;;;;;;-1.49;59.02;98374.53;4830164;29;20094;-91
2021/12/02 10:59:49;;;;;;;4.53;2.78;;;;;;;-1.46;58.13;98358.41;4827627;29;20165;-90
2021/12/02 11:02:35;;;;;;;4.40;2.92;;;;;;;-1.57;58.83;98359.78;4826672;29;20061;-87
2021/12/02 11:05:07;;;;;;;3.38;2.05;;;;;;;-1.59;58.86;98346.97;4793100;29;20108;-87
2021/12/02 11:07:40;;;;;;;4.13;2.30;;;;;;;-1.60;58.90;98352.91;4795028;29;20063;-88
2021/12/02 11:10:16;;;;;;;2.28;1.70;;;;;;;-1.55;58.67;98350.44;4778770;30;20063;-85
2021/12/02 11:12:48;;;;;;;4.47;2.38;;;;;;;-1.89;58.75;98291.53;4792640;29;20120;-85
2021/12/02 11:15:23;;;;;;;3.53;2.28;;;;;;;-1.43;58.77;98344.81;4792831;29;20055;-83
2021/12/02 11:18:10;;;;;;;3.55;2.30;;;;;;;-1.61;58.61;98329.78;4817793;29;20168;-86
2021/12/02 11:20:38;;;;;;;5.57;2.10;;;;;;;-1.59;58.88;98351.19;4831096;29;20511;-85
2021/12/02 11:23:09;;;;;;;3.40;2.20;;;;;;;-1.61;59.08;98333.25;4827299;29;20092;-84
2021/12/02 11:25:58;;;;;;;5.53;2.30;;;;;;;-1.72;58.85;98337.19;4826116;29;20066;-85
2021/12/02 11:28:28;;;;;;;5.57;2.47;;;;;;;-1.74;59.01;98342.28;4825719;29;20086;-89
2021/12/02 11:31:06;;;;;;;4.28;2.08;;;;;;;-1.98;59.18;98310.88;4826754;29;20467;-86
2021/12/02 11:33:36;;;;;;;4.45;2.30;;;;;;;-1.76;59.32;98336.25;4825067;29;20054;-87
2021/12/02 11:36:28;;;;;;;4.80;1.83;;;;;;;-1.73;58.85;98335.47;4826755;29;20078;-86
2021/12/02 11:38:59;;;;;;;4.03;2.47;;;;;;;-1.86;59.40;98322.31;4828894;29;20072;-88
2021/12/02 11:41:27;;;;;;;;;;;;;;;-1.87;59.63;98318.03;4828048;29;20062;-86
2021/12/02 11:43:55;;;;;;;3.88;2.30;;;;;;;-1.78;59.60;98324.25;4827343;29;19933;-85
2021/12/02 11:46:23;;;;;;;4.40;2.17;;;;;;;-1.73;59.47;98326.09;4826137;29;20085;-85
2021/12/02 11:48:50;;;;;;;5.07;2.28;;;;;;;-1.69;59.45;98322.78;4833404;29;20134;-85
2021/12/02 11:51:20;;;;;;;4.97;2.50;;;;;;;-1.68;59.46;98319.41;4830952;29;20064;-85
2021/12/02 11:53:48;;;;;;;4.25;2.25;;;;;;;-1.63;59.29;98313.53;4830865;29;20065;-85
2021/12/02 11:56:21;;;;;;;4.88;2.80;;;;;;;-1.65;59.32;98318.63;4812433;29;20089;-86
2021/12/02 11:58:51;;;;;;;4.80;2.00;;;;;;;-1.72;59.33;98301.34;4827241;29;20085;-85
2021/12/02 12:01:22;;;;;;;5.85;2.50;;;;;;;-1.93;59.81;98266.66;4822908;29;20082;-86
2021/12/02 12:03:56;;;;;;;5.25;2.70;;;;;;;-1.76;59.96;98277.38;4796480;29;20078;-83
2021/12/02 12:06:29;;;;;;;7.03;3.60;;;;;;;-1.65;59.38;98273.41;4800409;29;20077;-86
2021/12/02 12:08:58;;;;;;;7.45;3.22;;;;;;;-1.59;59.33;98282.06;4797236;29;20059;-86
2021/12/02 12:11:27;;;;;;;8.18;4.10;;;;;;;-1.53;59.59;98283.06;4790153;29;20090;-86
2021/12/02 12:13:59;;;;;;;6.50;2.85;;;;;;;-1.55;59.50;98278.75;4806425;29;20042;-85
2021/12/02 12:16:30;;;;;;;6.15;2.90;;;;;;;-1.74;59.18;98247.56;4792367;29;20059;-85
2021/12/02 12:19:13;;;;;;;4.97;2.95;;;;;;;-1.67;59.60;98275.03;4788514;29;20079;-86